Time;durP1;ratioP1;P1;durP2;ratioP2;P2;SDS_P1;SDS_P2;PMS_P1;PMS_P2;Temp;Humidity;BMP_temperature;BMP_pressure;BME280_temperature;BME280_humidity;BME280_pressure;Samples;Min_cycle;Max_cycle;Signal;HPM_P1;HPM_P2
2023/07/10 00:00:23;;;;;;;0.45;0.45;;;18.70;99.90;;;;;;5093251;28;20044;-62
2023/07/10 00:02:50;;;;;;;0.28;0.28;;;18.60;99.90;;;;;;5093203;28;20052;-61
2023/07/10 00:05:18;;;;;;;0.85;0.35;;;18.40;99.90;;;;;;5093210;28;20063;-62
2023/07/10 00:07:44;;;;;;;0.73;0.65;;;17.90;99.90;;;;;;5089614;28;20479;-63
2023/07/10 00:10:15;;;;;;;0.80;0.80;;;19.10;99.90;;;;;;5090476;28;20079;-62
2023/07/10 00:12:44;;;;;;;2.22;1.83;;;18.40;99.90;;;;;;5092798;28;20151;-62
2023/07/10 00:15:18;;;;;;;2.20;2.00;;;18.00;99.90;;;;;;5091732;28;20040;-62
2023/07/10 00:17:45;;;;;;;0.63;0.63;;;17.80;99.90;;;;;;5093109;28;20044;-62
2023/07/10 00:20:26;;;;;;;0.82;0.68;;;18.50;99.90;;;;;;5093055;28;20052;-62
2023/07/10 00:22:51;;;;;;;3.42;1.33;;;18.60;99.90;;;;;;5092920;28;20135;-63
2023/07/10 00:25:18;;;;;;;0.47;0.47;;;18.10;99.90;;;;;;5091851;28;20115;-62
2023/07/10 00:27:45;;;;;;;1.55;1.10;;;18.50;99.90;;;;;;5093360;28;20085;-62
2023/07/10 00:30:18;;;;;;;0.50;0.50;;;18.30;99.90;;;;;;5092955;28;20150;-62
2023/07/10 00:32:45;;;;;;;1.58;1.00;;;18.30;99.90;;;;;;5092711;28;20136;-62
2023/07/10 00:35:16;;;;;;;3.13;1.05;;;18.30;99.90;;;;;;5092739;28;20055;-62
2023/07/10 00:38:01;;;;;;;0.50;0.50;;;18.20;99.90;;;;;;5092579;28;20068;-63
2023/07/10 00:40:33;;;;;;;0.63;0.40;;;17.90;99.90;;;;;;5092839;28;20578;-63
2023/07/10 00:43:04;;;;;;;0.68;0.68;;;18.10;99.90;;;;;;5092603;28;20040;-62
2023/07/10 00:45:30;;;;;;;0.60;0.40;;;18.00;99.90;;;;;;5092591;28;20519;-62
2023/07/10 00:48:10;;;;;;;0.50;0.47;;;17.30;99.90;;;;;;5092398;28;20130;-62
2023/07/10 00:50:41;;;;;;;0.30;0.30;;;17.80;99.90;;;;;;5092585;28;20048;-62
2023/07/10 00:53:17;;;;;;;0.47;0.47;;;17.80;99.90;;;;;;5092650;28;20424;-63
2023/07/10 00:55:43;;;;;;;0.28;0.28;;;17.40;99.90;;;;;;5092437;28;20048;-62
2023/07/10 00:58:25;;;;;;;0.20;0.20;;;17.60;99.90;;;;;;5092394;28;20055;-62
2023/07/10 01:00:59;;;;;;;0.47;0.47;;;17.00;99.90;;;;;;5092123;28;20134;-64
2023/07/10 01:03:25;;;;;;;0.22;0.22;;;17.30;99.90;;;;;;5092183;28;20247;-62
2023/07/10 01:05:51;;;;;;;0.38;0.38;;;17.10;99.90;;;;;;5092178;28;20571;-63
2023/07/10 01:08:17;;;;;;;0.32;0.32;;;17.30;99.90;;;;;;5092083;28;20108;-62
2023/07/10 01:10:43;;;;;;;0.43;0.43;;;18.50;99.90;;;;;;5092048;28;20055;-62
2023/07/10 01:13:09;;;;;;;0.30;0.28;;;17.70;99.90;;;;;;5090528;28;20044;-62
2023/07/10 01:15:35;;;;;;;0.20;0.20;;;17.60;99.90;;;;;;5090829;28;20498;-62
2023/07/10 01:18:02;;;;;;;1.23;0.52;;;17.60;99.90;;;;;;5092326;28;20083;-62
2023/07/10 01:20:31;;;;;;;0.32;0.32;;;17.20;99.90;;;;;;5091943;28;20056;-63
2023/07/10 01:22:59;;;;;;;0.40;0.35;;;17.70;99.90;;;;;;5091754;28;20062;-64
2023/07/10 01:25:28;;;;;;;0.22;0.22;;;17.90;99.90;;;;;;5091856;28;20227;-62
2023/07/10 01:27:54;;;;;;;0.35;0.35;;;17.50;99.90;;;;;;5091629;28;20052;-62
2023/07/10 01:30:41;;;;;;;0.35;0.35;;;17.10;99.90;;;;;;5094717;28;20470;-61
2023/07/10 01:33:14;;;;;;;0.40;0.40;;;17.60;99.90;;;;;;5094989;28;20040;-62
2023/07/10 01:35:42;;;;;;;0.40;0.40;;;17.80;99.90;;;;;;5095388;28;20752;-61
2023/07/10 01:38:12;;;;;;;0.20;0.20;;;17.80;99.90;;;;;;5094424;28;20044;-62
2023/07/10 01:40:40;;;;;;;0.22;0.22;;;17.20;99.90;;;;;;5094567;28;20085;-62
2023/07/10 01:43:09;;;;;;;0.35;0.35;;;17.80;99.90;;;;;;5095392;28;20055;-63
2023/07/10 01:45:47;;;;;;;0.30;0.30;;;17.10;99.90;;;;;;5094877;28;20517;-62
2023/07/10 01:48:15;;;;;;;0.20;0.20;;;17.40;99.90;;;;;;5094522;28;20055;-64
2023/07/10 01:50:41;;;;;;;0.10;0.10;;;17.10;99.90;;;;;;5093100;28;20067;-63
2023/07/10 01:53:09;;;;;;;0.10;0.10;;;17.30;99.90;;;;;;5094968;28;20051;-62
2023/07/10 01:55:43;;;;;;;0.20;0.20;;;17.10;99.90;;;;;;5094973;28;20090;-62
2023/07/10 01:58:11;;;;;;;0.30;0.30;;;17.20;99.90;;;;;;5094549;28;20475;-62
2023/07/10 02:00:37;;;;;;;0.10;0.10;;;17.20;99.90;;;;;;5094705;28;20411;-62
2023/07/10 02:03:03;;;;;;;1.95;0.40;;;17.40;99.90;;;;;;5094509;28;20086;-62
2023/07/10 02:05:29;;;;;;;;;;;17.40;99.90;;;;;;5095055;28;20052;-63
2023/07/10 02:07:54;;;;;;;0.10;0.10;;;16.80;99.90;;;;;;5094747;28;19920;-61
2023/07/10 02:10:20;;;;;;;0.25;0.25;;;17.30;99.90;;;;;;5094770;28;20390;-61
2023/07/10 02:12:45;;;;;;;0.20;0.20;;;17.50;99.90;;;;;;5094288;28;20057;-61
2023/07/10 02:15:11;;;;;;;0.15;0.15;;;16.90;99.90;;;;;;5091215;28;20484;-61
2023/07/10 02:17:37;;;;;;;;;;;17.30;99.90;;;;;;5091340;28;20044;-61
2023/07/10 02:20:03;;;;;;;0.25;0.25;;;17.10;99.90;;;;;;5089986;28;20018;-61
2023/07/10 02:22:28;;;;;;;;;;;17.00;99.90;;;;;;5091785;28;20040;-62
2023/07/10 02:24:54;;;;;;;0.10;0.10;;;17.20;99.90;;;;;;5089890;28;19928;-62
2023/07/10 02:27:20;;;;;;;0.20;0.20;;;17.10;99.90;;;;;;5091006;28;20044;-62
2023/07/10 02:29:45;;;;;;;0.30;0.30;;;17.50;99.90;;;;;;5091126;28;20055;-61
2023/07/10 02:32:11;;;;;;;;;;;17.40;99.90;;;;;;5091186;28;20041;-62
2023/07/10 02:34:36;;;;;;;0.10;0.10;;;17.60;99.90;;;;;;5089423;28;20011;-62
2023/07/10 02:37:02;;;;;;;0.20;0.20;;;17.30;99.90;;;;;;5090924;28;20044;-62
2023/07/10 02:39:28;;;;;;;;;;;18.00;99.90;;;;;;5091310;28;20044;-61
2023/07/10 02:41:53;;;;;;;0.10;0.10;;;17.20;99.90;;;;;;5090952;28;19936;-63
2023/07/10 02:44:19;;;;;;;0.30;0.30;;;17.40;99.90;;;;;;5090865;28;20098;-62
2023/07/10 02:46:45;;;;;;;0.10;0.10;;;17.40;99.90;;;;;;5090822;28;20052;-62
2023/07/10 02:49:10;;;;;;;0.30;0.30;;;18.00;99.90;;;;;;5092248;28;20048;-63
2023/07/10 02:51:36;;;;;;;0.20;0.20;;;17.50;99.90;;;;;;5094519;28;20051;-62
2023/07/10 02:54:11;;;;;;;;;;;17.30;99.90;;;;;;5095226;28;20154;-62
2023/07/10 02:56:37;;;;;;;0.13;0.13;;;17.20;99.90;;;;;;5093621;28;20261;-62
2023/07/10 02:59:03;;;;;;;0.30;0.30;;;17.50;99.90;;;;;;5094435;28;20046;-61
2023/07/10 03:01:29;;;;;;;0.13;0.13;;;17.20;99.90;;;;;;5093069;28;20056;-63
2023/07/10 03:03:54;;;;;;;0.88;0.65;;;19.70;99.90;;;;;;5092931;28;20060;-62
2023/07/10 03:06:23;;;;;;;;;;;16.90;99.90;;;;;;5094891;28;20047;-62
2023/07/10 03:08:48;;;;;;;0.10;0.10;;;17.00;99.90;;;;;;5094348;28;19924;-63
2023/07/10 03:11:16;;;;;;;0.20;0.20;;;17.20;99.90;;;;;;5094125;28;20048;-62
2023/07/10 03:13:42;;;;;;;0.20;0.20;;;17.10;99.90;;;;;;5094232;28;20162;-62
2023/07/10 03:16:09;;;;;;;;;;;17.00;99.90;;;;;;5094474;28;20113;-62
2023/07/10 03:18:36;;;;;;;0.20;0.20;;;17.00;99.90;;;;;;5093922;28;19938;-62
2023/07/10 03:21:02;;;;;;;0.35;0.30;;;16.50;99.90;;;;;;5094149;28;20051;-62
2023/07/10 03:23:28;;;;;;;0.10;0.10;;;17.20;99.90;;;;;;5093872;28;20040;-62
2023/07/10 03:25:54;;;;;;;0.20;0.20;;;16.80;99.90;;;;;;5093761;28;20054;-62
2023/07/10 03:28:21;;;;;;;0.20;0.20;;;17.10;99.90;;;;;;5093804;28;20044;-62
2023/07/10 03:30:47;;;;;;;0.10;0.10;;;16.80;99.90;;;;;;5093693;28;20496;-62
2023/07/10 03:33:14;;;;;;;0.10;0.10;;;17.30;99.90;;;;;;5093615;28;20048;-62
2023/07/10 03:35:40;;;;;;;0.20;0.20;;;17.10;99.90;;;;;;5093769;28;20066;-61
2023/07/10 03:38:07;;;;;;;0.10;0.10;;;17.00;99.90;;;;;;5093729;28;20044;-61
2023/07/10 03:40:32;;;;;;;0.10;0.10;;;16.80;99.90;;;;;;5093609;28;20075;-63
2023/07/10 03:42:58;;;;;;;0.40;0.40;;;16.80;99.90;;;;;;5093424;28;20040;-62
2023/07/10 03:45:23;;;;;;;;;;;16.80;99.90;;;;;;5093842;28;20180;-63
2023/07/10 03:47:49;;;;;;;0.20;0.20;;;17.00;99.90;;;;;;5093358;28;20022;-64
2023/07/10 03:50:15;;;;;;;0.40;0.40;;;16.40;99.90;;;;;;5093646;28;20044;-61
2023/07/10 03:52:41;;;;;;;0.15;0.15;;;16.60;99.90;;;;;;5092522;28;20444;-62
2023/07/10 03:55:07;;;;;;;0.20;0.20;;;16.90;99.90;;;;;;5093265;28;20075;-62
2023/07/10 03:57:32;;;;;;;0.10;0.10;;;17.20;99.90;;;;;;5093238;28;20039;-61
2023/07/10 03:59:58;;;;;;;0.70;0.40;;;17.00;99.90;;;;;;5093010;28;20070;-63
2023/07/10 04:02:24;;;;;;;0.10;0.10;;;17.00;99.90;;;;;;5092790;28;20551;-63
2023/07/10 04:04:49;;;;;;;;;;;16.50;99.90;;;;;;5093422;28;20574;-62
2023/07/10 04:07:17;;;;;;;0.10;0.10;;;16.40;99.90;;;;;;5093061;28;19923;-63
2023/07/10 04:09:42;;;;;;;0.30;0.30;;;16.60;99.90;;;;;;5093147;28;20044;-61
2023/07/10 04:12:09;;;;;;;0.30;0.30;;;16.70;99.90;;;;;;5091620;28;20046;-61
2023/07/10 04:14:37;;;;;;;1.27;0.65;;;16.90;99.90;;;;;;5091653;28;20052;-62
2023/07/10 04:17:06;;;;;;;0.10;0.10;;;16.60;99.90;;;;;;5093027;28;20048;-61
2023/07/10 04:19:32;;;;;;;2.00;0.60;;;17.20;99.90;;;;;;5093007;28;20048;-62
2023/07/10 04:21:57;;;;;;;0.30;0.30;;;16.90;99.90;;;;;;5092837;28;20502;-62
2023/07/10 04:24:23;;;;;;;0.30;0.30;;;17.00;99.90;;;;;;5092896;28;20054;-61
2023/07/10 04:26:49;;;;;;;0.50;0.50;;;16.90;99.90;;;;;;5092777;28;20047;-62
2023/07/10 04:29:15;;;;;;;;;;;17.00;99.90;;;;;;5092924;28;20048;-62
2023/07/10 04:31:41;;;;;;;0.17;0.17;;;17.10;99.90;;;;;;5091597;28;19924;-62
2023/07/10 04:34:07;;;;;;;;;;;17.10;99.90;;;;;;5093176;28;20108;-63
2023/07/10 04:36:35;;;;;;;0.10;0.10;;;17.60;99.90;;;;;;5092626;28;19927;-62
2023/07/10 04:39:01;;;;;;;0.10;0.10;;;17.10;99.90;;;;;;5092567;28;20128;-63
2023/07/10 04:41:26;;;;;;;0.13;0.13;;;17.30;99.90;;;;;;5092412;28;20123;-63
2023/07/10 04:43:52;;;;;;;0.20;0.20;;;17.30;99.90;;;;;;5092336;28;20051;-63
2023/07/10 04:46:18;;;;;;;;;;;17.40;99.90;;;;;;5092599;28;20149;-63
2023/07/10 04:48:44;;;;;;;1.35;0.95;;;18.00;99.90;;;;;;5092422;28;19927;-63
2023/07/10 04:51:12;;;;;;;0.60;0.60;;;17.50;99.90;;;;;;5092252;28;20052;-63
2023/07/10 04:53:37;;;;;;;0.43;0.43;;;17.70;99.90;;;;;;5092230;28;20040;-63
2023/07/10 04:56:06;;;;;;;0.30;0.30;;;17.50;99.90;;;;;;5091997;28;20105;-63
2023/07/10 04:59:04;;;;;;;2.28;1.08;;;17.80;99.90;;;;;;5091957;28;20101;-63
2023/07/10 05:01:34;;;;;;;0.45;0.45;;;17.50;99.90;;;;;;5046848;28;20139;-63
2023/07/10 05:04:01;;;;;;;0.20;0.20;;;17.30;99.90;;;;;;5092120;28;20067;-64
2023/07/10 05:06:28;;;;;;;0.30;0.30;;;17.60;99.90;;;;;;5092012;28;20689;-62
2023/07/10 05:08:56;;;;;;;0.65;0.65;;;17.50;99.90;;;;;;5091961;28;20040;-63
2023/07/10 05:11:24;;;;;;;0.30;0.30;;;17.60;99.90;;;;;;5091427;28;20158;-63
2023/07/10 05:13:50;;;;;;;0.22;0.22;;;17.60;99.90;;;;;;5091822;28;20067;-64
2023/07/10 05:16:16;;;;;;;0.65;0.65;;;17.80;99.90;;;;;;5091783;28;20551;-63
2023/07/10 05:18:42;;;;;;;0.40;0.40;;;17.90;99.90;;;;;;5091750;28;20044;-63
2023/07/10 05:21:07;;;;;;;0.13;0.13;;;17.60;99.90;;;;;;5091703;28;20491;-63
2023/07/10 05:23:35;;;;;;;0.35;0.35;;;17.90;99.90;;;;;;5091513;28;20142;-64
2023/07/10 05:26:10;;;;;;;0.35;0.35;;;17.60;99.90;;;;;;5091754;28;20100;-62
2023/07/10 05:28:36;;;;;;;0.40;0.38;;;17.90;99.90;;;;;;5090782;28;20051;-64
2023/07/10 05:31:04;;;;;;;0.25;0.25;;;17.90;99.90;;;;;;5091675;28;20055;-62
2023/07/10 05:33:30;;;;;;;0.10;0.10;;;18.20;99.90;;;;;;5091808;28;20079;-62
2023/07/10 05:35:59;;;;;;;0.10;0.10;;;17.80;99.90;;;;;;5091551;28;20526;-63
2023/07/10 05:38:28;;;;;;;0.20;0.20;;;18.20;99.90;;;;;;5091659;28;20051;-62
2023/07/10 05:40:54;;;;;;;0.30;0.30;;;18.00;99.90;;;;;;5091484;28;20051;-62
2023/07/10 05:43:20;;;;;;;3.70;0.88;;;17.70;99.90;;;;;;5091339;28;20093;-65
2023/07/10 05:45:51;;;;;;;0.63;0.63;;;18.20;99.90;;;;;;5091103;28;20488;-63
2023/07/10 05:48:17;;;;;;;0.80;0.75;;;20.10;99.90;;;;;;5091228;28;20459;-62
2023/07/10 05:50:44;;;;;;;0.22;0.22;;;17.90;99.90;;;;;;5091077;28;20136;-62
2023/07/10 05:53:10;;;;;;;0.90;0.38;;;18.00;99.90;;;;;;5091147;28;20060;-63
2023/07/10 05:55:35;;;;;;;0.75;0.60;;;17.80;99.90;;;;;;5091126;28;20055;-62
2023/07/10 05:58:01;;;;;;;0.80;0.45;;;17.90;99.90;;;;;;5091214;28;20112;-62
2023/07/10 06:00:27;;;;;;;0.43;0.43;;;18.20;99.90;;;;;;5091145;28;20052;-62
2023/07/10 06:02:53;;;;;;;0.45;0.45;;;17.60;99.90;;;;;;5090839;28;20059;-63
2023/07/10 06:05:18;;;;;;;0.17;0.17;;;17.80;99.90;;;;;;5091087;28;20123;-62
2023/07/10 06:07:44;;;;;;;0.32;0.32;;;17.70;99.90;;;;;;5091619;28;20048;-62
2023/07/10 06:10:10;;;;;;;0.10;0.10;;;18.10;99.90;;;;;;5091248;28;20048;-62
2023/07/10 06:12:35;;;;;;;0.57;0.47;;;18.20;99.90;;;;;;5090525;28;20052;-62
2023/07/10 06:15:01;;;;;;;0.55;0.40;;;17.90;99.90;;;;;;5091056;28;20139;-64
2023/07/10 06:17:27;;;;;;;0.30;0.30;;;18.10;99.90;;;;;;5091094;28;20400;-62
2023/07/10 06:19:52;;;;;;;0.30;0.30;;;18.00;99.90;;;;;;5090733;28;20051;-62
2023/07/10 06:22:18;;;;;;;0.63;0.50;;;18.40;99.90;;;;;;5090794;28;20094;-63
2023/07/10 06:24:44;;;;;;;0.30;0.30;;;18.70;99.90;;;;;;5093819;28;20093;-62
2023/07/10 06:27:10;;;;;;;0.63;0.60;;;18.60;99.90;;;;;;5095182;28;20050;-62
2023/07/10 06:29:37;;;;;;;0.22;0.22;;;18.80;99.90;;;;;;5089711;28;20407;-63
2023/07/10 06:32:04;;;;;;;0.73;0.40;;;19.00;99.90;;;;;;5093647;28;20492;-62
2023/07/10 06:34:30;;;;;;;0.30;0.20;;;18.80;99.90;;;;;;5094238;28;20136;-62
2023/07/10 06:36:55;;;;;;;0.10;0.10;;;19.20;99.90;;;;;;5093932;28;20071;-61
2023/07/10 06:39:21;;;;;;;1.40;0.93;;;19.20;99.90;;;;;;5094417;28;20052;-61
2023/07/10 06:41:47;;;;;;;0.20;0.20;;;19.10;99.90;;;;;;5093083;28;20140;-61
2023/07/10 06:44:14;;;;;;;0.30;0.30;;;19.70;99.90;;;;;;5092968;28;20071;-61
2023/07/10 06:46:40;;;;;;;0.35;0.30;;;19.30;99.90;;;;;;5092733;28;20052;-62
2023/07/10 06:49:05;;;;;;;2.33;0.43;;;19.30;99.90;;;;;;5093741;28;20043;-61
2023/07/10 06:51:31;;;;;;;0.20;0.20;;;19.50;99.90;;;;;;5093611;28;20099;-61
2023/07/10 06:53:57;;;;;;;0.40;0.40;;;19.30;99.90;;;;;;5094113;28;20048;-61
2023/07/10 06:56:22;;;;;;;0.38;0.30;;;19.30;99.90;;;;;;5093774;28;20043;-61
2023/07/10 06:58:48;;;;;;;0.98;0.50;;;19.50;99.90;;;;;;5092898;28;20514;-61
2023/07/10 07:01:14;;;;;;;0.80;0.80;;;19.60;99.90;;;;;;5093564;28;20087;-61
2023/07/10 07:03:40;;;;;;;0.25;0.25;;;19.30;99.90;;;;;;5093186;28;20054;-61
2023/07/10 07:06:07;;;;;;;0.30;0.30;;;19.80;99.90;;;;;;5093299;28;20048;-61
2023/07/10 07:08:33;;;;;;;0.25;0.20;;;19.60;99.90;;;;;;5093734;28;20044;-61
2023/07/10 07:10:59;;;;;;;1.58;1.48;;;19.90;99.90;;;;;;5092353;28;20044;-61
2023/07/10 07:13:25;;;;;;;4.57;1.38;;;20.00;99.90;;;;;;5086679;28;20039;-61
2023/07/10 07:15:53;;;;;;;0.65;0.65;;;19.60;99.90;;;;;;5092147;28;20070;-61
2023/07/10 07:18:20;;;;;;;0.22;0.22;;;20.00;99.90;;;;;;5101349;28;20042;-59
2023/07/10 07:20:46;;;;;;;0.40;0.40;;;19.70;99.90;;;;;;5111697;28;20451;-60
2023/07/10 07:23:12;;;;;;;0.40;0.40;;;20.00;99.90;;;;;;5112948;28;20126;-61
2023/07/10 07:25:41;;;;;;;0.30;0.30;;;19.90;99.90;;;;;;5098382;28;20040;-61
2023/07/10 07:28:06;;;;;;;0.47;0.45;;;20.00;99.90;;;;;;5091702;28;20458;-62
2023/07/10 07:30:32;;;;;;;0.22;0.22;;;20.50;99.90;;;;;;5091586;28;20048;-60
2023/07/10 07:32:58;;;;;;;0.40;0.40;;;20.00;99.90;;;;;;5092032;28;20044;-61
2023/07/10 07:35:25;;;;;;;0.50;0.50;;;20.10;99.90;;;;;;5091611;28;20070;-61
2023/07/10 07:37:51;;;;;;;2.38;1.33;;;20.30;99.90;;;;;;5092417;28;20137;-62
2023/07/10 07:40:16;;;;;;;2.75;1.02;;;20.40;99.90;;;;;;5092229;28;20464;-61
2023/07/10 07:42:44;;;;;;;0.10;0.10;;;20.50;99.90;;;;;;5091497;28;20047;-60
2023/07/10 07:45:10;;;;;;;0.10;0.10;;;20.90;99.90;;;;;;5091901;28;20044;-60
2023/07/10 07:47:36;;;;;;;0.30;0.30;;;20.70;99.90;;;;;;5091785;28;20051;-61
2023/07/10 07:50:02;;;;;;;3.63;1.17;;;20.60;99.90;;;;;;5091431;28;20048;-61
2023/07/10 07:52:28;;;;;;;0.30;0.30;;;20.70;99.90;;;;;;5092102;28;20044;-61
2023/07/10 07:54:53;;;;;;;0.10;0.10;;;20.80;99.90;;;;;;5091941;28;20101;-63
2023/07/10 07:57:22;;;;;;;1.02;0.45;;;20.90;99.90;;;;;;5091027;28;20082;-62
2023/07/10 07:59:49;;;;;;;1.40;0.65;;;20.90;99.90;;;;;;5091613;28;20048;-61
2023/07/10 08:02:15;;;;;;;0.47;0.47;;;21.10;99.90;;;;;;5091137;28;20098;-60
2023/07/10 08:04:41;;;;;;;0.35;0.35;;;21.10;99.90;;;;;;5094063;28;20539;-60
2023/07/10 08:07:07;;;;;;;3.38;0.98;;;21.30;99.90;;;;;;5091455;28;20044;-61
2023/07/10 08:09:33;;;;;;;0.15;0.15;;;21.00;99.90;;;;;;5092041;28;20537;-61
2023/07/10 08:11:59;;;;;;;0.10;0.10;;;20.90;99.90;;;;;;5090872;28;20040;-60
2023/07/10 08:14:26;;;;;;;0.57;0.30;;;21.00;99.90;;;;;;5089776;28;20062;-61
2023/07/10 08:16:52;;;;;;;2.88;0.57;;;20.70;99.90;;;;;;5091355;28;20391;-61
2023/07/10 08:19:18;;;;;;;1.00;0.45;;;20.50;99.90;;;;;;5090804;28;20105;-64
2023/07/10 08:21:44;;;;;;;1.05;1.05;;;21.20;99.90;;;;;;5091685;28;20070;-61
2023/07/10 08:24:09;;;;;;;0.38;0.38;;;21.10;99.90;;;;;;5091884;28;20419;-60
2023/07/10 08:26:35;;;;;;;0.22;0.22;;;21.40;99.90;;;;;;5090611;28;20044;-60
2023/07/10 08:29:30;;;;;;;0.20;0.20;;;21.80;99.90;;;;;;5101490;28;20059;-61
2023/07/10 08:31:58;;;;;;;0.55;0.55;;;21.90;99.90;;;;;;5111907;28;20487;-60
2023/07/10 08:34:25;;;;;;;0.20;0.20;;;21.70;99.90;;;;;;5111356;28;20165;-60
2023/07/10 08:36:55;;;;;;;0.30;0.30;;;21.70;99.90;;;;;;5111812;28;20086;-60
2023/07/10 08:39:24;;;;;;;0.20;0.20;;;21.60;99.90;;;;;;5111250;28;20113;-61
2023/07/10 08:41:56;;;;;;;0.00;0.00;;;21.80;99.90;;;;;;5110421;28;20491;-60
2023/07/10 08:44:30;;;;;;;2.92;0.38;;;22.20;99.90;;;;;;5111394;28;20135;-63
2023/07/10 08:46:59;;;;;;;0.10;0.10;;;21.90;99.90;;;;;;5111159;28;20745;-62
2023/07/10 08:49:38;;;;;;;0.47;0.35;;;21.90;99.90;;;;;;5111310;28;20055;-64
2023/07/10 08:52:12;;;;;;;0.32;0.32;;;21.80;99.90;;;;;;5110884;28;20079;-62
2023/07/10 08:54:38;;;;;;;2.88;0.32;;;21.80;99.90;;;;;;5111999;27;20047;-61
2023/07/10 08:57:11;;;;;;;0.10;0.10;;;21.80;99.90;;;;;;5111267;28;20069;-62
2023/07/10 08:59:53;;;;;;;5.18;0.70;;;22.00;99.90;;;;;;5111618;28;20832;-63
2023/07/10 09:02:19;;;;;;;0.20;0.20;;;22.40;99.90;;;;;;5111710;28;20086;-62
2023/07/10 09:04:48;;;;;;;0.10;0.10;;;22.10;99.90;;;;;;5111033;27;20126;-62
2023/07/10 09:07:16;;;;;;;0.22;0.22;;;22.20;99.90;;;;;;5110516;28;20083;-62
2023/07/10 09:09:47;;;;;;;0.25;0.25;;;22.20;99.90;;;;;;5111468;28;20082;-63
2023/07/10 09:12:22;;;;;;;0.30;0.30;;;22.00;99.90;;;;;;5111068;28;20039;-62
2023/07/10 09:14:58;;;;;;;0.20;0.20;;;22.30;99.90;;;;;;5111369;28;20124;-62
2023/07/10 09:17:40;;;;;;;1.00;0.70;;;22.20;99.90;;;;;;5112479;28;20043;-62
2023/07/10 09:20:10;;;;;;;0.63;0.63;;;22.30;99.90;;;;;;5112571;28;20100;-61
2023/07/10 09:22:41;;;;;;;0.43;0.43;;;22.30;99.90;;;;;;5112213;28;20038;-62
2023/07/10 09:25:12;;;;;;;0.93;0.88;;;22.40;99.90;;;;;;5112105;28;20146;-62
2023/07/10 09:27:42;;;;;;;0.35;0.35;;;22.60;99.90;;;;;;5111930;28;20043;-62
2023/07/10 09:30:26;;;;;;;0.15;0.15;;;22.50;99.90;;;;;;5112151;28;20051;-62
2023/07/10 09:33:03;;;;;;;1.58;1.48;;;22.70;99.90;;;;;;5111979;28;20118;-62
2023/07/10 09:35:29;;;;;;;1.80;0.63;;;22.70;99.90;;;;;;5111964;28;20044;-63
2023/07/10 09:37:55;;;;;;;1.60;1.00;;;22.30;99.90;;;;;;5111793;28;20125;-62
2023/07/10 09:40:44;;;;;;;0.30;0.25;;;22.70;99.90;;;;;;5111679;28;20055;-63
2023/07/10 09:43:21;;;;;;;0.32;0.32;;;22.20;99.90;;;;;;5111619;28;20556;-62
2023/07/10 09:45:50;;;;;;;0.00;0.00;;;22.20;99.90;;;;;;5111726;28;20104;-62
2023/07/10 09:48:21;;;;;;;0.20;0.20;;;22.30;99.90;;;;;;5111691;28;20558;-62
2023/07/10 09:50:49;;;;;;;0.57;0.57;;;22.30;99.90;;;;;;5111587;28;20095;-62
2023/07/10 09:53:29;;;;;;;1.88;0.40;;;22.40;99.90;;;;;;5111769;28;20044;-62
2023/07/10 09:55:55;;;;;;;1.23;0.20;;;22.80;99.90;;;;;;5111611;28;20059;-62
2023/07/10 09:58:21;;;;;;;0.20;0.20;;;22.40;99.90;;;;;;5111427;28;20051;-62
2023/07/10 10:00:48;;;;;;;0.60;0.60;;;22.40;99.90;;;;;;5110509;28;20058;-63
2023/07/10 10:03:32;;;;;;;0.45;0.45;;;22.20;99.90;;;;;;5111735;28;20142;-63
2023/07/10 10:06:01;;;;;;;0.40;0.40;;;22.20;99.90;;;;;;5111811;28;20077;-62
2023/07/10 10:08:34;;;;;;;0.55;0.20;;;22.60;99.90;;;;;;5111565;28;20134;-63
2023/07/10 10:11:08;;;;;;;0.20;0.20;;;22.70;99.90;;;;;;5111503;28;20047;-62
2023/07/10 10:13:56;;;;;;;0.35;0.35;;;22.30;99.90;;;;;;5111484;28;20047;-61
2023/07/10 10:16:30;;;;;;;0.25;0.20;;;22.50;99.90;;;;;;5111536;28;20055;-62
2023/07/10 10:19:04;;;;;;;6.13;0.68;;;22.70;99.90;;;;;;5111458;28;20375;-62
2023/07/10 10:21:35;;;;;;;0.45;0.25;;;22.80;99.90;;;;;;5111312;28;20410;-63
2023/07/10 10:24:04;;;;;;;0.30;0.30;;;23.20;99.90;;;;;;5111145;28;20051;-63
2023/07/10 10:26:57;;;;;;;0.73;0.63;;;23.50;99.90;;;;;;5111530;28;20047;-63
2023/07/10 10:29:44;;;;;;;0.22;0.22;;;23.70;99.90;;;;;;5111362;28;20491;-63
2023/07/10 10:32:25;;;;;;;1.17;0.90;;;23.60;99.90;;;;;;5111162;28;20407;-62
2023/07/10 10:35:12;;;;;;;5.57;0.77;;;23.60;99.90;;;;;;5111316;28;20052;-63
2023/07/10 10:38:01;;;;;;;0.40;0.38;;;23.20;99.90;;;;;;5111162;28;20101;-62
2023/07/10 10:40:42;;;;;;;0.20;0.20;;;23.60;99.90;;;;;;5111148;28;20050;-62
2023/07/10 10:43:27;;;;;;;1.10;0.63;;;22.90;99.90;;;;;;5111358;28;20051;-62
2023/07/10 10:46:12;;;;;;;0.52;0.43;;;22.50;99.90;;;;;;5111155;28;20130;-62
2023/07/10 10:49:01;;;;;;;1.75;1.05;;;22.40;99.90;;;;;;5110750;28;20419;-62
2023/07/10 10:51:42;;;;;;;0.28;0.28;;;22.00;99.90;;;;;;5111399;28;20144;-63
2023/07/10 10:54:24;;;;;;;4.03;1.65;;;21.50;99.90;;;;;;5111093;28;20488;-62
2023/07/10 10:57:19;;;;;;;3.83;0.73;;;21.70;99.90;;;;;;5111070;28;20055;-63
2023/07/10 11:00:05;;;;;;;0.35;0.35;;;21.70;99.90;;;;;;5111390;28;20044;-63
2023/07/10 11:02:55;;;;;;;3.40;1.10;;;21.90;99.90;;;;;;5109631;28;20058;-62
2023/07/10 11:05:39;;;;;;;2.08;0.47;;;22.60;99.90;;;;;;5110949;28;20062;-63
2023/07/10 11:08:20;;;;;;;0.10;0.10;;;23.00;99.90;;;;;;5110041;28;20445;-63
2023/07/10 11:10:47;;;;;;;0.10;0.10;;;22.60;99.90;;;;;;5113577;28;20052;-63
2023/07/10 11:13:33;;;;;;;0.35;0.22;;;22.10;99.90;;;;;;5114763;28;20053;-64
2023/07/10 11:16:01;;;;;;;0.40;0.40;;;22.10;99.90;;;;;;5114552;28;20487;-63
2023/07/10 11:18:27;;;;;;;0.20;0.20;;;21.90;99.90;;;;;;5114705;28;20043;-63
2023/07/10 11:20:53;;;;;;;0.35;0.20;;;22.00;99.90;;;;;;5114432;28;20147;-63
2023/07/10 11:23:42;;;;;;;0.55;0.38;;;22.00;99.90;;;;;;5114403;27;20047;-64
2023/07/10 11:26:16;;;;;;;1.85;1.75;;;22.20;99.90;;;;;;5113184;28;20047;-63
2023/07/10 11:28:57;;;;;;;1.35;0.68;;;22.30;99.90;;;;;;5114240;27;20055;-63
2023/07/10 11:31:36;;;;;;;0.05;0.05;;;22.20;99.90;;;;;;5114303;27;20051;-63
2023/07/10 11:34:05;;;;;;;0.80;0.80;;;22.70;99.90;;;;;;5113378;28;20047;-62
2023/07/10 11:36:34;;;;;;;0.10;0.10;;;22.40;99.90;;;;;;5114064;28;20052;-63
2023/07/10 11:39:05;;;;;;;0.82;0.82;;;22.90;99.90;;;;;;5113980;28;20151;-64
2023/07/10 11:41:58;;;;;;;0.20;0.20;;;22.50;99.90;;;;;;5114254;28;20051;-64
2023/07/10 11:44:31;;;;;;;2.60;0.70;;;22.60;99.90;;;;;;5114050;28;20612;-63
2023/07/10 11:46:57;;;;;;;0.20;0.20;;;22.80;99.90;;;;;;5114002;28;20059;-64
2023/07/10 11:49:45;;;;;;;0.10;0.10;;;23.00;99.90;;;;;;5113911;28;20050;-63
2023/07/10 11:52:14;;;;;;;1.55;1.23;;;23.00;99.90;;;;;;5114149;28;20055;-63
2023/07/10 11:54:58;;;;;;;0.70;0.70;;;22.70;99.90;;;;;;5113791;28;20073;-64
2023/07/10 11:57:33;;;;;;;0.30;0.30;;;22.60;99.90;;;;;;5113818;28;20047;-64
2023/07/10 12:00:02;;;;;;;0.30;0.30;;;22.50;99.90;;;;;;5113815;28;20047;-63
2023/07/10 12:02:44;;;;;;;0.32;0.32;;;22.10;99.90;;;;;;5113952;28;20051;-64
2023/07/10 12:05:18;;;;;;;0.63;0.63;;;22.10;99.90;;;;;;5113781;28;20045;-64
2023/07/10 12:07:58;;;;;;;0.68;0.68;;;21.90;99.90;;;;;;5113616;28;20047;-65
2023/07/10 12:10:26;;;;;;;0.52;0.40;;;21.90;99.90;;;;;;5113445;28;20055;-65
2023/07/10 12:12:52;;;;;;;0.30;0.30;;;22.40;99.90;;;;;;5107247;28;20039;-64
2023/07/10 12:15:18;;;;;;;0.03;0.03;;;22.20;99.90;;;;;;5091321;28;20089;-64
2023/07/10 12:17:45;;;;;;;1.02;0.73;;;22.00;99.90;;;;;;5092832;28;20048;-64
2023/07/10 12:20:31;;;;;;;2.50;0.25;;;22.00;99.90;;;;;;5092752;28;20044;-63
2023/07/10 12:23:06;;;;;;;0.15;0.15;;;21.70;99.90;;;;;;5091443;28;20498;-63
2023/07/10 12:25:32;;;;;;;0.20;0.17;;;21.80;99.90;;;;;;5092780;28;20055;-64
2023/07/10 12:28:13;;;;;;;0.10;0.10;;;22.00;99.90;;;;;;5092808;28;20040;-63
2023/07/10 12:30:40;;;;;;;0.40;0.30;;;22.40;99.90;;;;;;5092869;28;20048;-63
2023/07/10 12:33:39;;;;;;;0.28;0.28;;;22.70;99.90;;;;;;5092767;28;20082;-63
2023/07/10 12:36:19;;;;;;;0.20;0.20;;;22.60;99.90;;;;;;5088936;28;20142;-67
2023/07/10 12:38:46;;;;;;;0.10;0.10;;;23.30;99.90;;;;;;5087068;28;20059;-62
2023/07/10 12:41:11;;;;;;;0.03;0.03;;;23.50;99.90;;;;;;5090588;28;20051;-63
2023/07/10 12:43:37;;;;;;;0.15;0.10;;;23.70;99.90;;;;;;5091972;28;20036;-64
2023/07/10 12:46:15;;;;;;;0.10;0.10;;;23.30;99.90;;;;;;5092201;28;20044;-63
2023/07/10 12:48:41;;;;;;;1.25;1.10;;;23.20;99.90;;;;;;5092724;28;20052;-63
2023/07/10 12:51:12;;;;;;;1.27;0.32;;;23.30;99.90;;;;;;5092207;28;20484;-63
2023/07/10 12:53:41;;;;;;;0.20;0.20;;;23.80;99.90;;;;;;5091080;28;20079;-63
2023/07/10 12:56:33;;;;;;;0.10;0.10;;;24.00;99.90;;;;;;5091511;28;20048;-65
2023/07/10 12:59:13;;;;;;;0.38;0.38;;;24.40;99.90;;;;;;5084007;28;20040;-62
2023/07/10 13:01:50;;;;;;;0.10;0.10;;;24.50;99.90;;;;;;5071333;28;20048;-62
2023/07/10 13:04:25;;;;;;;0.25;0.25;;;24.70;99.90;;;;;;5088230;28;20064;-62